Terminal Aerodrome Forecast
Issued by NWS

Home | Current Version | Previous Version | Text Only | Print | Product List | Glossary On
Versions: 1 2 3 4 5 6 7 8 9 10 11 12
000
FTUS45 KABQ 010529
TAFROW
TAF
KROW 010529Z 0106/0206 03020G30KT P6SM BKN050 BKN080
     FM011200 36012G20KT P6SM OVC030
     FM011800 02012KT P6SM VCSH BKN040 BKN070=

USA.gov is the U.S. government's official web portal to all federal, state and local government web resources and services.